Latest Weather Observations for Liawenee

IDT60801

Issued at 3:02 pm EDT Thursday 13 December 2018 (issued every 10 minutes, with the page automatically refreshed every 10 minutes)

About weather observations | Map of weather stations | Latest weather observations for TAS | Other Formats
Station Details ID: 096033 Name: LIAWENEE Lat: -41.90 Lon: 146.67 Height: 1057.0 m
Data from the previous 72 hours. | See also: Recent months at Liawenee
Date/Time
EDT
Temp
°C
App
Temp
°C
Dew
Point
°C
Rel
Hum
%
Delta-T
°C
Wind Press
QNH
hPa
Press
MSL
hPa
Rain since
9am
mm
Dir  Spd
km/h
Gust
km/h
Spd
kts
Gust
kts
13/03:00pm 16.8 12.9 14.3 85 1.5 NE 28 39 15 21 1006.9 1005.2 0.0
13/02:30pm 16.4 12.0 14.1 86 1.4 NE 30 41 16 22 1006.5 1004.9 0.0
13/02:00pm 16.3 12.9 14.8 91 0.9 NE 26 37 14 20 1006.7 1005.0 0.0
13/01:30pm 16.2 11.2 13.3 83 1.7 NE 32 43 17 23 1006.4 1004.8 0.0
13/01:03pm 15.9 11.5 13.0 83 1.7 NE 28 48 15 26 1006.5 1004.9 0.0
13/01:00pm 16.2 12.2 14.0 87 1.3 NE 28 35 15 19 1006.5 1004.9 0.0
13/12:30pm 15.5 11.4 13.7 89 1.1 NE 28 35 15 19 1006.7 1005.0 0.0
13/12:00pm 15.8 12.4 13.6 87 1.3 NE 24 37 13 20 1006.3 1004.7 0.0
13/11:30am 14.8 11.1 13.8 94 0.6 NE 26 35 14 19 1006.1 1004.4 0.0
13/11:00am 14.1 10.0 13.9 99 0.1 NE 28 37 15 20 1005.9 1004.2 0.0
13/10:30am 13.4 9.5 13.4 100 0.0 NE 26 39 14 21 1005.8 1004.1 0.0
13/10:00am 13.4 9.2 13.4 100 0.0 NNE 28 39 15 21 1005.5 1003.9 0.0
13/09:30am 12.0 8.1 12.0 100 0.0 NNE 24 37 13 20 1006.0 1004.3 0.0
13/09:00am 13.3 8.6 13.3 100 0.0 NNE 30 44 16 24 1005.7 1004.0 0.0
13/08:37am 14.4 10.0 14.1 98 0.2 NNE 30 48 16 26 1005.3 1003.6 0.0
13/08:30am 14.2 9.2 14.0 99 0.1 NNE 33 48 18 26 1005.2 1003.5 0.0
13/08:00am 12.8 8.0 12.8 100 0.0 NNE 30 46 16 25 1005.0 1003.3 0.0
13/07:30am 11.6 6.0 11.6 100 0.0 NNE 32 44 17 24 1005.0 1003.3 0.0
13/07:00am 11.4 5.8 11.4 100 0.0 NNE 32 48 17 26 1005.0 1003.3 0.0
13/06:32am 10.8 5.0 10.8 100 0.0 NNE 32 50 17 27 1004.9 1003.2 0.0
13/06:30am 10.8 4.8 10.8 100 0.0 NNE 33 50 18 27 1004.9 1003.2 0.0
13/06:00am 10.5 4.6 10.5 100 0.0 NNE 32 46 17 25 1004.9 1003.2 0.0
13/05:30am 10.1 4.5 10.1 100 0.0 NNE 30 41 16 22 1005.0 1003.3 0.0
13/05:00am 10.0 6.3 10.0 100 0.0 NNE 20 33 11 18 1005.2 1003.5 0.0
13/04:30am 9.8 7.3 9.8 100 0.0 NNE 13 22 7 12 1005.3 1003.6 0.0
13/04:00am 9.8 7.3 9.8 100 0.0 NNE 13 26 7 14 1005.5 1003.9 0.0
13/03:30am 10.0 4.4 10.0 100 0.0 NNE 30 43 16 23 1005.8 1004.1 0.0
13/03:02am 10.0 4.7 10.0 100 0.0 NNE 28 46 15 25 1006.1 1004.4 0.0
13/03:00am 10.0 4.7 10.0 100 0.0 NNE 28 39 15 21 1006.1 1004.4 0.0
13/02:30am 9.4 5.7 9.4 100 0.0 NNE 19 30 10 16 1006.5 1004.9 0.0
13/02:00am 9.6 5.7 9.6 100 0.0 NNE 20 33 11 18 1007.0 1005.3 0.0
13/01:30am 9.6 5.7 9.6 100 0.0 NNE 20 35 11 19 1007.5 1005.9 0.0
13/01:00am 9.7 5.1 9.7 100 0.0 NNE 24 46 13 25 1007.7 1006.0 0.0
13/12:34am 9.7 4.4 9.7 100 0.0 NNE 28 46 15 25 1007.9 1006.2 0.0
13/12:30am 9.7 4.4 9.7 100 0.0 NNE 28 44 15 24 1007.8 1006.1 0.0
13/12:00am 9.4 6.8 9.4 100 0.0 N 13 28 7 15 1008.1 1006.5 0.0
 
Date/Time
EDT
Temp
°C
App
Temp
°C
Dew
Point
°C
Rel
Hum
%
Delta-T
°C
Wind Press
QNH
hPa
Press
MSL
hPa
Rain since
9am
mm
Dir  Spd
km/h
Gust
km/h
Spd
kts
Gust
kts
12/11:30pm 9.5 6.9 9.5 100 0.0 NNE 13 20 7 11 1008.5 1006.9 0.0
12/11:00pm 9.4 7.6 9.4 100 0.0 ESE 9 20 5 11 1008.8 1007.1 0.0
12/10:30pm 9.9 6.3 9.9 100 0.0 NNE 19 32 10 17 1008.9 1007.3 0.0
12/10:00pm 10.5 5.8 10.5 100 0.0 NNE 26 43 14 23 1009.1 1007.5 0.0
12/09:30pm 11.3 7.1 11.1 99 0.1 N 24 39 13 21 1009.2 1007.6 0.0
12/09:00pm 11.8 8.2 11.8 100 0.0 N 22 41 12 22 1009.3 1007.7 0.0
12/08:30pm 12.4 9.4 11.8 96 0.3 NNE 19 33 10 18 1009.5 1007.9 0.0
12/08:00pm 13.3 10.0 11.5 89 1.0 NNE 20 30 11 16 1009.6 1008.1 0.0
12/07:30pm 14.1 10.4 9.3 73 2.6 N 19 30 10 16 1009.9 1008.3 0.0
12/07:00pm 14.8 10.5 9.4 70 2.9 N 22 37 12 20 1009.9 1008.3 0.0
12/06:30pm 15.6 11.2 9.1 65 3.5 NNE 22 39 12 21 1010.2 1008.6 0.0
12/06:00pm 16.1 12.2 8.8 62 4.0 NNE 19 35 10 19 1010.4 1008.8 0.0
12/05:30pm 16.8 13.3 8.8 59 4.3 NNW 17 28 9 15 1010.9 1009.3 0.0
12/05:00pm 17.5 12.6 8.6 56 4.8 NNE 24 39 13 21 1011.0 1009.4 0.0
12/04:30pm 17.3 11.8 9.0 58 4.5 NNE 28 41 15 22 1011.2 1009.6 0.0
12/04:02pm 17.2 11.6 8.9 58 4.5 NNE 28 46 15 25 1011.2 1009.6 0.0
12/04:00pm 17.2 12.0 8.9 58 4.5 NNE 26 46 14 25 1011.2 1009.6 0.0
12/03:30pm 17.1 11.3 8.0 55 4.9 N 28 48 15 26 1011.6 1010.1 0.0
12/03:26pm 17.0 11.1 7.4 53 5.1 N 28 48 15 26 1011.8 1010.2 0.0
12/03:00pm 17.6 12.1 7.4 51 5.4 NNE 26 39 14 21 1012.3 1010.8 0.0
12/02:37pm 17.0 11.1 7.6 54 5.0 N 28 46 15 25 1012.5 1011.0 0.0
12/02:30pm 17.6 12.6 8.2 54 5.1 N 24 41 13 22 1012.5 1011.0 0.0
12/02:01pm 17.0 11.1 7.4 53 5.1 NNE 28 46 15 25 1013.0 1011.5 0.0
12/02:00pm 17.0 11.6 7.9 55 4.9 NNE 26 46 14 25 1013.0 1011.5 0.0
12/01:30pm 16.6 10.3 5.9 49 5.5 NNE 28 48 15 26 1013.3 1011.8 0.0
12/01:00pm 17.1 10.9 6.0 48 5.7 N 28 48 15 26 1013.4 1011.9 0.0
12/12:30pm 17.4 10.8 4.4 42 6.5 NNE 28 46 15 25 1013.6 1012.1 0.0
12/12:02pm 16.6 8.9 2.2 38 6.9 NNE 32 50 17 27 1014.0 1012.5 0.0
12/12:00pm 16.5 8.7 1.8 37 6.9 NNE 32 44 17 24 1014.0 1012.5 0.0
12/11:40am 16.4 8.3 3.5 42 6.3 NNE 35 54 19 29 1014.0 1012.5 0.0
12/11:30am 15.8 6.4 2.6 41 6.3 NNE 41 56 22 30 1014.1 1012.6 0.0
12/11:12am 15.7 7.7 1.8 39 6.5 NNE 33 52 18 28 1014.1 1012.6 0.0
12/11:00am 16.2 7.9 1.9 38 6.8 NNE 35 50 19 27 1014.1 1012.6 0.0
12/10:40am 15.9 8.7 0.5 35 7.0 NNE 28 46 15 25 1014.3 1012.8 0.0
12/10:30am 16.4 10.3 0.5 34 7.3 NNE 22 46 12 25 1014.5 1013.0 0.0
12/10:00am 15.4 8.8 1.9 40 6.3 NNE 26 48 14 26 1014.9 1013.4 0.0
12/09:30am 15.2 9.3 1.7 40 6.3 NNE 22 35 12 19 1015.4 1013.9 0.0
12/09:15am 14.8 7.5 2.4 43 5.8 NNE 30 48 16 26 1015.1 1013.6 0.0
12/09:00am 14.7 8.4 3.5 47 5.4 NNE 26 37 14 20 1015.0 1013.5 0.0
12/08:30am 14.0 7.3 1.6 43 5.7 NNE 26 41 14 22 1015.2 1013.7 0.0
12/08:00am 13.5 8.3 3.8 52 4.7 NNE 20 35 11 19 1015.4 1013.9 0.0
12/07:30am 12.4 9.5 6.5 67 3.0 NE 11 20 6 11 1015.6 1014.2 0.0
12/07:00am 11.2 8.7 10.9 98 0.2 ENE 15 19 8 10 1016.0 1014.5 0.0
12/06:30am 9.0 7.5 9.0 100 0.0 NE 7 13 4 7 1016.1 1014.6 0.0
12/06:00am 6.9 4.9 6.9 100 0.0 NE 7 11 4 6 1016.2 1014.7 0.0
12/05:30am 5.4 1.9 5.4 100 0.0 NNE 13 17 7 9 1016.6 1015.2 0.0
12/05:00am 5.3 2.1 5.3 100 0.0 NNE 11 13 6 7 1016.8 1015.4 0.0
12/04:30am 5.6 2.1 5.6 100 0.0 NNE 13 15 7 8 1017.1 1015.6 0.0
12/04:00am 3.6 2.2 3.6 100 0.0 CALM 0 0 0 0 1017.4 1016.0 0.0
12/03:30am 5.9 3.6 5.9 100 0.0 N 7 11 4 6 1017.6 1016.2 0.0
12/03:00am 5.4 3.2 5.4 100 0.0 NNE 6 11 3 6 1017.7 1016.3 0.0
12/02:30am 6.1 3.5 6.1 100 0.0 NE 9 13 5 7 1018.2 1016.8 0.0
12/02:00am 7.8 6.0 7.8 100 0.0 N 7 13 4 7 1018.5 1017.1 0.0
12/01:30am 8.6 5.4 8.6 100 0.0 N 15 22 8 12 1018.6 1017.2 0.0
12/01:00am 9.2 6.6 9.2 100 0.0 N 13 20 7 11 1018.7 1017.3 0.0
12/12:30am 10.0 7.2 10.0 100 0.0 NNE 15 20 8 11 1019.0 1017.6 0.0
12/12:00am 10.5 7.5 10.5 100 0.0 NNE 17 24 9 13 1019.2 1017.8 0.0
 
Date/Time
EDT
Temp
°C
App
Temp
°C
Dew
Point
°C
Rel
Hum
%
Delta-T
°C
Wind Press
QNH
hPa
Press
MSL
hPa
Rain since
9am
mm
Dir  Spd
km/h
Gust
km/h
Spd
kts
Gust
kts
11/11:30pm 10.4 6.8 10.4 100 0.0 NNE 20 26 11 14 1019.4 1018.0 0.0
11/11:00pm 10.6 7.6 10.6 100 0.0 NNE 17 24 9 13 1019.6 1018.3 0.0
11/10:30pm 10.8 8.6 10.8 100 0.0 NNE 13 17 7 9 1019.8 1018.5 0.0
11/10:00pm 11.0 8.5 11.0 100 0.0 NNE 15 19 8 10 1019.8 1018.5 0.0
11/09:30pm 11.6 8.9 11.6 100 0.0 NNE 17 20 9 11 1019.8 1018.5 0.0
11/09:00pm 11.9 10.0 11.7 99 0.1 NNE 13 17 7 9 1019.8 1018.5 0.0
11/08:30pm 12.6 11.1 11.8 95 0.5 NNE 11 17 6 9 1019.6 1018.3 0.0
11/08:00pm 13.8 11.4 11.3 85 1.4 NNE 15 20 8 11 1019.6 1018.3 0.0
11/07:30pm 15.1 12.4 10.5 74 2.6 NE 15 20 8 11 1019.4 1018.0 0.0
11/07:00pm 15.7 13.0 10.5 71 2.9 NNE 15 19 8 10 1019.2 1017.8 0.0
11/06:30pm 16.4 12.9 10.3 67 3.4 NNE 19 22 10 12 1019.2 1017.8 0.0
11/06:00pm 17.2 13.6 10.6 65 3.7 NE 20 24 11 13 1019.1 1017.7 0.0
11/05:30pm 17.1 13.8 9.5 61 4.2 NNE 17 26 9 14 1019.2 1017.8 0.0
11/05:00pm 18.7 15.5 9.8 56 5.0 NE 17 26 9 14 1019.3 1017.9 0.0
11/04:30pm 19.0 15.9 10.3 57 4.9 NE 17 28 9 15 1019.5 1018.1 0.0
11/04:00pm 18.9 16.8 8.3 50 5.8 ENE 9 20 5 11 1019.6 1018.3 0.0
11/03:30pm 18.8 14.9 8.7 52 5.5 E 19 28 10 15 1019.7 1018.4 0.0
11/03:00pm 18.6 15.7 8.0 50 5.7 NE 13 26 7 14 1019.8 1018.5 0.0
11/02:30pm 18.0 14.7 9.4 57 4.8 NE 17 28 9 15 1020.1 1018.7 0.0
11/02:00pm 17.4 13.9 7.2 51 5.4 NE 15 24 8 13 1020.2 1018.8 0.0
11/01:30pm 18.2 14.1 8.5 53 5.3 NE 20 32 11 17 1020.4 1019.0 0.0
11/01:00pm 18.4 14.6 9.2 55 5.1 NE 19 28 10 15 1020.4 1019.0 0.0
11/12:30pm 17.4 13.3 8.0 54 5.0 NE 19 28 10 15 1020.5 1019.2 0.0
11/12:00pm 17.7 14.4 6.3 47 5.9 NE 13 20 7 11 1020.4 1019.0 0.0
11/11:30am 17.0 14.2 6.8 51 5.3 NE 11 19 6 10 1020.4 1019.0 0.0
11/11:00am 16.3 13.3 5.9 50 5.3 ENE 11 15 6 8 1020.4 1019.0 0.0
11/10:30am 15.3 12.3 5.8 53 4.8 ENE 11 19 6 10 1020.5 1019.2 0.0
11/10:00am 14.9 11.7 6.7 58 4.2 E 13 17 7 9 1020.4 1019.0 0.0
11/09:30am 14.9 12.4 6.7 58 4.2 SE 9 17 5 9 1020.5 1019.2 0.0
11/09:00am 14.4 12.5 7.7 64 3.5 E 7 13 4 7 1020.3 1018.9 0.0
11/08:30am 13.6 11.3 2.8 48 5.1 NE 4 11 2 6 1020.2 1018.8 0.0
11/08:00am 12.6 11.4 7.9 73 2.4 ESE 4 7 2 4 1020.0 1018.6 0.0
11/07:30am 11.0 10.4 8.9 87 1.1 E 2 6 1 3 1019.6 1018.3 0.0
11/07:00am 9.5 9.4 9.5 100 0.0 CALM 0 0 0 0 1019.6 1018.3 0.0
11/06:30am 5.4 4.4 5.4 100 0.0 CALM 0 0 0 0 1019.4 1018.0 0.0
11/06:00am 2.4 0.8 2.4 100 0.0 CALM 0 0 0 0 1019.3 1017.9 0.0
11/05:30am 0.9 -0.9 0.9 100 0.0 CALM 0 0 0 0 1019.1 1017.7 0.0
11/05:00am 2.9 0.1 2.9 100 0.0 W 7 7 4 4 1019.0 1017.6 0.0
11/04:30am 2.3 0.3 2.3 100 0.0 W 2 7 1 4 1019.0 1017.6 0.0
11/04:00am 2.3 -0.7 2.3 100 0.0 W 7 7 4 4 1019.1 1017.7 0.0
11/03:30am 1.9 0.2 1.9 100 0.0 CALM 0 0 0 0 1019.0 1017.6 0.0
11/03:00am 0.8 -1.1 0.8 100 0.0 CALM 0 0 0 0 1019.1 1017.7 0.0
11/02:30am 1.4 -0.4 1.4 100 0.0 CALM 0 0 0 0 1019.2 1017.8 0.0
11/02:00am 1.8 0.1 1.8 100 0.0 CALM 0 0 0 0 1019.4 1018.0 0.0
11/01:30am 1.5 -0.3 1.5 100 0.0 CALM 0 0 0 0 1019.4 1018.0 0.0
11/01:00am 3.0 0.4 3.0 100 0.0 WSW 6 7 3 4 1019.4 1018.0 0.0
11/12:30am 2.6 0.3 2.6 100 0.0 N 4 7 2 4 1019.6 1018.3 0.0
11/12:00am 3.4 0.3 3.4 100 0.0 W 9 11 5 6 1019.6 1018.3 0.0
 
Date/Time
EDT
Temp
°C
App
Temp
°C
Dew
Point
°C
Rel
Hum
%
Delta-T
°C
Wind Press
QNH
hPa
Press
MSL
hPa
Rain since
9am
mm
Dir  Spd
km/h
Gust
km/h
Spd
kts
Gust
kts
10/11:30pm 4.1 1.6 4.0 99 0.0 W 6 7 3 4 1020.0 1018.6 0.0
10/11:00pm 4.5 1.6 4.4 99 0.0 WNW 9 11 5 6 1019.8 1018.5 0.0
10/10:30pm 4.2 2.9 3.9 98 0.1 CALM 0 0 0 0 1019.7 1018.4 0.0
10/10:00pm 5.5 3.1 4.3 92 0.5 W 6 7 3 4 1019.6 1018.3 0.0
10/09:30pm 5.9 2.9 3.9 87 0.9 W 9 11 5 6 1019.4 1018.0 0.0
10/09:00pm 7.0 4.0 4.0 81 1.4 SW 9 13 5 7 1019.2 1017.8 0.0
10/08:30pm 8.9 5.4 3.5 69 2.5 SW 11 13 6 7 1019.0 1017.6 0.0
10/08:00pm 10.9 6.4 4.1 63 3.2 SSW 17 24 9 13 1018.6 1017.2 0.0
10/07:30pm 12.0 7.8 4.0 58 3.8 SSW 15 20 8 11 1018.3 1016.9 0.0
10/07:00pm 12.9 8.3 3.6 53 4.4 SSW 17 24 9 13 1017.7 1016.3 0.0
10/06:30pm 14.0 9.5 4.0 51 4.8 SSW 17 24 9 13 1017.3 1015.9 0.0
10/06:00pm 14.5 9.4 4.2 50 5.0 S 20 28 11 15 1017.0 1015.5 0.0
10/05:30pm 14.4 9.7 5.2 54 4.6 S 19 28 10 15 1016.8 1015.4 0.0
10/05:00pm 15.2 10.4 4.6 49 5.2 SSW 19 30 10 16 1016.8 1015.4 0.0
10/04:30pm 15.7 11.2 4.4 47 5.6 SW 17 24 9 13 1016.6 1015.2 0.0
10/04:00pm 14.9 10.0 4.9 51 5.0 SW 20 30 11 16 1016.5 1015.1 0.0
10/03:30pm 15.3 10.0 5.2 51 5.1 SW 22 33 12 18 1016.3 1014.9 0.0

Other Formats:

Comma delimited format used in spreadsheet applications
http://www.bom.gov.au/fwo/IDT60801/IDT60801.95959.axf

JavaScript Object Notation format (JSON) in row-major order
http://www.bom.gov.au/fwo/IDT60801/IDT60801.95959.json